sensor_id;sensor_type;location;lat;lon;timestamp;pressure;altitude;pressure_sealevel;temperature;humidity
15817;BME280;8009;50.070;8.232;2023-04-27T00:06:58;100180.69;;;7.74;54.36
15817;BME280;8009;50.070;8.232;2023-04-27T00:09:27;100182.16;;;7.79;55.64
15817;BME280;8009;50.070;8.232;2023-04-27T00:15:19;100173.72;;;8.14;55.28
15817;BME280;8009;50.070;8.232;2023-04-27T00:17:47;100177.72;;;7.64;56.93
15817;BME280;8009;50.070;8.232;2023-04-27T00:20:16;100177.72;;;7.64;56.62
15817;BME280;8009;50.070;8.232;2023-04-27T00:22:47;100169.03;;;7.45;56.34
15817;BME280;8009;50.070;8.232;2023-04-27T00:25:16;100168.63;;;7.51;56.63
15817;BME280;8009;50.070;8.232;2023-04-27T00:27:44;100182.63;;;7.42;56.46
15817;BME280;8009;50.070;8.232;2023-04-27T00:30:13;100180.75;;;7.58;56.69
15817;BME280;8009;50.070;8.232;2023-04-27T00:32:41;100180.28;;;7.66;55.78
15817;BME280;8009;50.070;8.232;2023-04-27T00:35:10;100183.22;;;7.47;57.04
15817;BME280;8009;50.070;8.232;2023-04-27T00:37:38;100177.91;;;7.31;56.01
15817;BME280;8009;50.070;8.232;2023-04-27T00:40:10;100174.69;;;7.54;56.87
15817;BME280;8009;50.070;8.232;2023-04-27T00:42:39;100174.16;;;7.78;56.47
15817;BME280;8009;50.070;8.232;2023-04-27T00:45:08;100172.50;;;7.61;56.42
15817;BME280;8009;50.070;8.232;2023-04-27T00:47:37;100178.91;;;7.44;56.36
15817;BME280;8009;50.070;8.232;2023-04-27T00:50:07;100177.03;;;7.61;55.72
15817;BME280;8009;50.070;8.232;2023-04-27T00:52:36;100171.69;;;7.75;55.37
15817;BME280;8009;50.070;8.232;2023-04-27T00:55:06;100171.59;;;7.91;55.43
15817;BME280;8009;50.070;8.232;2023-04-27T00:57:37;100177.03;;;7.61;55.25
15817;BME280;8009;50.070;8.232;2023-04-27T01:00:07;100174.94;;;7.80;54.82
15817;BME280;8009;50.070;8.232;2023-04-27T01:02:38;100170.53;;;8.07;53.87
15817;BME280;8009;50.070;8.232;2023-04-27T01:05:07;100183.28;;;7.31;57.45
15817;BME280;8009;50.070;8.232;2023-04-27T01:07:36;100187.88;;;7.29;56.35
15817;BME280;8009;50.070;8.232;2023-04-27T01:10:06;100183.72;;;7.23;57.11
15817;BME280;8009;50.070;8.232;2023-04-27T01:12:37;100187.72;;;7.46;56.65
15817;BME280;8009;50.070;8.232;2023-04-27T01:15:06;100188.59;;;7.47;55.68
15817;BME280;8009;50.070;8.232;2023-04-27T01:17:35;100187.03;;;7.43;56.73
15817;BME280;8009;50.070;8.232;2023-04-27T01:20:05;100184.88;;;7.49;55.92
15817;BME280;8009;50.070;8.232;2023-04-27T01:22:35;100189.16;;;6.92;57.98
15817;BME280;8009;50.070;8.232;2023-04-27T01:25:07;100187.34;;;6.92;58.81
15817;BME280;8009;50.070;8.232;2023-04-27T01:27:36;100186.13;;;7.28;55.87
15817;BME280;8009;50.070;8.232;2023-04-27T01:30:06;100192.41;;;7.13;57.70
15817;BME280;8009;50.070;8.232;2023-04-27T01:32:36;100193.91;;;7.32;56.74
15817;BME280;8009;50.070;8.232;2023-04-27T01:35:05;100197.38;;;7.35;56.28
15817;BME280;8009;50.070;8.232;2023-04-27T01:37:33;100198.25;;;6.57;57.64
15817;BME280;8009;50.070;8.232;2023-04-27T01:40:06;100189.94;;;6.78;58.21
15817;BME280;8009;50.070;8.232;2023-04-27T01:42:35;100200.84;;;6.75;58.44
15817;BME280;8009;50.070;8.232;2023-04-27T01:45:33;100197.88;;;6.32;58.76
15817;BME280;8009;50.070;8.232;2023-04-27T01:48:01;100194.88;;;6.54;58.97
15817;BME280;8009;50.070;8.232;2023-04-27T01:50:30;100199.66;;;6.65;57.84
15817;BME280;8009;50.070;8.232;2023-04-27T01:52:58;100199.06;;;6.75;58.10
15817;BME280;8009;50.070;8.232;2023-04-27T01:55:30;100192.25;;;6.52;56.56
15817;BME280;8009;50.070;8.232;2023-04-27T01:57:58;100196.53;;;6.56;56.67
15817;BME280;8009;50.070;8.232;2023-04-27T02:00:27;100198.53;;;6.69;55.98
15817;BME280;8009;50.070;8.232;2023-04-27T02:02:55;100205.00;;;6.49;56.57
15817;BME280;8009;50.070;8.232;2023-04-27T02:05:24;100201.88;;;6.41;56.48
15817;BME280;8009;50.070;8.232;2023-04-27T02:07:53;100197.63;;;6.52;56.30
15817;BME280;8009;50.070;8.232;2023-04-27T02:10:21;100205.53;;;7.03;54.20
15817;BME280;8009;50.070;8.232;2023-04-27T02:12:52;100203.31;;;7.09;53.46
15817;BME280;8009;50.070;8.232;2023-04-27T02:15:21;100208.78;;;6.29;55.94
15817;BME280;8009;50.070;8.232;2023-04-27T02:17:49;100216.72;;;6.15;57.72
15817;BME280;8009;50.070;8.232;2023-04-27T02:20:17;100202.72;;;6.25;56.81
15817;BME280;8009;50.070;8.232;2023-04-27T02:22:46;100211.69;;;6.57;57.47
15817;BME280;8009;50.070;8.232;2023-04-27T02:25:14;100210.59;;;6.44;57.79
15817;BME280;8009;50.070;8.232;2023-04-27T03:47:15;100192.28;;;6.84;57.33
15817;BME280;8009;50.070;8.232;2023-04-27T03:49:43;100196.78;;;6.83;57.84
15817;BME280;8009;50.070;8.232;2023-04-27T03:52:12;100195.91;;;6.67;59.12
15817;BME280;8009;50.070;8.232;2023-04-27T03:54:40;100203.00;;;7.00;57.21
15817;BME280;8009;50.070;8.232;2023-04-27T04:09:57;100214.25;;;6.75;59.17
15817;BME280;8009;50.070;8.232;2023-04-27T04:12:27;100204.22;;;7.10;57.09
15817;BME280;8009;50.070;8.232;2023-04-27T04:14:55;100205.78;;;6.98;57.52
15817;BME280;8009;50.070;8.232;2023-04-27T04:17:25;100209.81;;;7.05;56.92
15817;BME280;8009;50.070;8.232;2023-04-27T04:20:06;100207.34;;;6.71;57.28
15817;BME280;8009;50.070;8.232;2023-04-27T04:22:35;100208.03;;;6.43;57.76
15817;BME280;8009;50.070;8.232;2023-04-27T04:25:07;100210.00;;;7.18;55.79
15817;BME280;8009;50.070;8.232;2023-04-27T04:27:35;100212.53;;;6.74;56.75
15817;BME280;8009;50.070;8.232;2023-04-27T04:30:31;100200.53;;;7.27;54.30
15817;BME280;8009;50.070;8.232;2023-04-27T04:32:59;100211.47;;;7.08;55.02
15817;BME280;8009;50.070;8.232;2023-04-27T04:35:28;100212.97;;;6.66;57.54
15817;BME280;8009;50.070;8.232;2023-04-27T04:37:57;100214.19;;;6.61;57.85
15817;BME280;8009;50.070;8.232;2023-04-27T04:40:28;100218.16;;;6.53;58.63
15817;BME280;8009;50.070;8.232;2023-04-27T04:42:56;100223.63;;;6.99;56.30
15817;BME280;8009;50.070;8.232;2023-04-27T04:45:25;100226.84;;;7.36;54.25
15817;BME280;8009;50.070;8.232;2023-04-27T04:47:53;100227.38;;;6.32;58.41
15817;BME280;8009;50.070;8.232;2023-04-27T04:50:21;100232.53;;;6.68;58.77
15817;BME280;8009;50.070;8.232;2023-04-27T04:52:50;100229.50;;;6.74;57.87
15817;BME280;8009;50.070;8.232;2023-04-27T04:55:18;100231.06;;;6.63;57.95
15817;BME280;8009;50.070;8.232;2023-04-27T04:57:49;100227.16;;;7.16;55.20
15817;BME280;8009;50.070;8.232;2023-04-27T05:00:18;100228.72;;;7.04;55.04
15817;BME280;8009;50.070;8.232;2023-04-27T05:02:46;100226.66;;;6.77;56.97
15817;BME280;8009;50.070;8.232;2023-04-27T05:05:15;100223.88;;;7.11;56.50
15817;BME280;8009;50.070;8.232;2023-04-27T05:07:43;100228.63;;;6.74;55.94
15817;BME280;8009;50.070;8.232;2023-04-27T05:10:11;100235.66;;;6.76;55.73
15817;BME280;8009;50.070;8.232;2023-04-27T05:12:40;100244.69;;;6.91;56.38
15817;BME280;8009;50.070;8.232;2023-04-27T05:15:11;100243.97;;;6.72;57.98
15817;BME280;8009;50.070;8.232;2023-04-27T05:17:40;100247.59;;;6.71;58.01
15817;BME280;8009;50.070;8.232;2023-04-27T05:20:09;100248.97;;;6.78;58.48
15817;BME280;8009;50.070;8.232;2023-04-27T05:22:37;100242.22;;;7.18;56.92
15817;BME280;8009;50.070;8.232;2023-04-27T05:25:06;100245.19;;;7.60;54.16
15817;BME280;8009;50.070;8.232;2023-04-27T05:27:35;100241.13;;;6.91;57.77
15817;BME280;8009;50.070;8.232;2023-04-27T05:30:04;100253.72;;;7.66;56.28
15817;BME280;8009;50.070;8.232;2023-04-27T05:45:44;100257.66;;;7.61;53.34
15817;BME280;8009;50.070;8.232;2023-04-27T05:48:13;100252.22;;;7.76;55.40
15817;BME280;8009;50.070;8.232;2023-04-27T05:50:43;100255.88;;;7.75;56.50
15817;BME280;8009;50.070;8.232;2023-04-27T05:53:11;100252.94;;;8.09;57.13
15817;BME280;8009;50.070;8.232;2023-04-27T05:55:40;100255.47;;;7.67;56.05
15817;BME280;8009;50.070;8.232;2023-04-27T05:58:31;100266.81;;;7.72;56.63
15817;BME280;8009;50.070;8.232;2023-04-27T06:01:08;100264.75;;;7.62;55.84
15817;BME280;8009;50.070;8.232;2023-04-27T06:03:37;100266.28;;;7.96;55.48
15817;BME280;8009;50.070;8.232;2023-04-27T06:06:06;100274.34;;;7.96;56.17
15817;BME280;8009;50.070;8.232;2023-04-27T06:08:34;100275.44;;;7.77;56.35
15817;BME280;8009;50.070;8.232;2023-04-27T06:11:04;100278.47;;;7.87;54.72
15817;BME280;8009;50.070;8.232;2023-04-27T06:13:32;100282.13;;;7.86;55.16
15817;BME280;8009;50.070;8.232;2023-04-27T06:16:01;100281.28;;;7.70;55.52
15817;BME280;8009;50.070;8.232;2023-04-27T06:18:31;100283.66;;;7.90;54.65
15817;BME280;8009;50.070;8.232;2023-04-27T06:21:00;100285.13;;;8.10;53.57
15817;BME280;8009;50.070;8.232;2023-04-27T06:23:28;100280.13;;;8.04;53.34
15817;BME280;8009;50.070;8.232;2023-04-27T06:25:57;100285.59;;;8.02;53.56
15817;BME280;8009;50.070;8.232;2023-04-27T06:28:26;100291.66;;;8.06;52.62
15817;BME280;8009;50.070;8.232;2023-04-27T06:30:54;100282.69;;;8.36;51.56
15817;BME280;8009;50.070;8.232;2023-04-27T06:33:22;100285.97;;;8.55;53.80
15817;BME280;8009;50.070;8.232;2023-04-27T06:35:53;100289.81;;;8.79;52.74
15817;BME280;8009;50.070;8.232;2023-04-27T06:38:22;100290.59;;;8.67;52.46
15817;BME280;8009;50.070;8.232;2023-04-27T06:40:51;100290.81;;;9.20;50.82
15817;BME280;8009;50.070;8.232;2023-04-27T06:43:19;100285.34;;;9.34;53.37
15817;BME280;8009;50.070;8.232;2023-04-27T06:45:48;100287.09;;;9.62;51.53
15817;BME280;8009;50.070;8.232;2023-04-27T06:48:16;100294.50;;;9.98;47.06
15817;BME280;8009;50.070;8.232;2023-04-27T06:50:45;100280.75;;;10.29;47.79
15817;BME280;8009;50.070;8.232;2023-04-27T06:53:16;100282.78;;;10.12;48.77
15817;BME280;8009;50.070;8.232;2023-04-27T06:55:44;100278.06;;;10.29;51.75
15817;BME280;8009;50.070;8.232;2023-04-27T06:58:13;100280.53;;;10.44;46.32
15817;BME280;8009;50.070;8.232;2023-04-27T07:00:41;100283.00;;;9.42;51.93
15817;BME280;8009;50.070;8.232;2023-04-27T07:03:09;100280.72;;;9.63;51.03
15817;BME280;8009;50.070;8.232;2023-04-27T07:05:38;100284.97;;;9.80;47.07
15817;BME280;8009;50.070;8.232;2023-04-27T07:08:07;100292.66;;;9.86;46.01
15817;BME280;8009;50.070;8.232;2023-04-27T07:10:38;100286.22;;;10.14;45.74
15817;BME280;8009;50.070;8.232;2023-04-27T07:13:06;100295.28;;;10.00;47.81
15817;BME280;8009;50.070;8.232;2023-04-27T07:15:34;100269.16;;;10.14;46.90
15817;BME280;8009;50.070;8.232;2023-04-27T07:18:03;100274.06;;;10.47;48.45
15817;BME280;8009;50.070;8.232;2023-04-27T07:20:31;100276.09;;;10.56;48.07
15817;BME280;8009;50.070;8.232;2023-04-27T07:23:00;100284.09;;;10.58;47.52
15817;BME280;8009;50.070;8.232;2023-04-27T07:25:28;100283.19;;;10.95;48.24
15817;BME280;8009;50.070;8.232;2023-04-27T07:28:00;100274.91;;;10.73;47.41
15817;BME280;8009;50.070;8.232;2023-04-27T07:30:28;100280.63;;;10.30;45.11
15817;BME280;8009;50.070;8.232;2023-04-27T07:33:00;100269.59;;;10.71;44.36
15817;BME280;8009;50.070;8.232;2023-04-27T07:35:28;100271.50;;;10.95;44.07
15817;BME280;8009;50.070;8.232;2023-04-27T07:37:57;100268.72;;;11.44;44.91
15817;BME280;8009;50.070;8.232;2023-04-27T07:40:26;100259.31;;;11.50;43.44
15817;BME280;8009;50.070;8.232;2023-04-27T07:42:54;100258.72;;;11.58;43.76
15817;BME280;8009;50.070;8.232;2023-04-27T07:45:26;100260.00;;;11.41;44.22
15817;BME280;8009;50.070;8.232;2023-04-27T07:47:56;100252.59;;;11.67;43.12
15817;BME280;8009;50.070;8.232;2023-04-27T07:50:25;100251.91;;;11.76;42.68
15817;BME280;8009;50.070;8.232;2023-04-27T07:52:54;100247.94;;;11.69;42.67
15817;BME280;8009;50.070;8.232;2023-04-27T07:55:23;100246.50;;;12.11;42.50
15817;BME280;8009;50.070;8.232;2023-04-27T07:57:53;100250.69;;;12.15;42.78
15817;BME280;8009;50.070;8.232;2023-04-27T08:00:22;100249.63;;;12.40;42.12
15817;BME280;8009;50.070;8.232;2023-04-27T08:02:54;100256.78;;;12.41;42.60
15817;BME280;8009;50.070;8.232;2023-04-27T08:05:22;100254.06;;;12.41;43.31
15817;BME280;8009;50.070;8.232;2023-04-27T08:07:50;100249.13;;;12.69;41.47
15817;BME280;8009;50.070;8.232;2023-04-27T08:10:19;100242.25;;;12.65;41.82
15817;BME280;8009;50.070;8.232;2023-04-27T08:12:48;100242.22;;;12.31;42.68
15817;BME280;8009;50.070;8.232;2023-04-27T08:15:16;100247.78;;;12.30;43.11
15817;BME280;8009;50.070;8.232;2023-04-27T08:17:44;100257.13;;;12.26;42.59
15817;BME280;8009;50.070;8.232;2023-04-27T08:20:15;100247.28;;;12.47;42.80
15817;BME280;8009;50.070;8.232;2023-04-27T08:22:44;100252.59;;;12.49;42.80
15817;BME280;8009;50.070;8.232;2023-04-27T08:25:12;100246.44;;;12.69;41.97
15817;BME280;8009;50.070;8.232;2023-04-27T08:27:41;100248.03;;;12.94;41.26
15817;BME280;8009;50.070;8.232;2023-04-27T08:30:10;100234.53;;;13.15;42.10
15817;BME280;8009;50.070;8.232;2023-04-27T08:32:38;100248.03;;;12.94;40.81
15817;BME280;8009;50.070;8.232;2023-04-27T08:35:07;100239.75;;;13.07;40.69
15817;BME280;8009;50.070;8.232;2023-04-27T08:37:38;100247.25;;;13.03;40.72
15817;BME280;8009;50.070;8.232;2023-04-27T08:40:08;100246.00;;;13.18;39.66
15817;BME280;8009;50.070;8.232;2023-04-27T08:42:37;100239.41;;;13.55;41.09
15817;BME280;8009;50.070;8.232;2023-04-27T08:45:08;100254.09;;;13.73;39.00
15817;BME280;8009;50.070;8.232;2023-04-27T08:47:37;100243.94;;;13.54;40.05
15817;BME280;8009;50.070;8.232;2023-04-27T08:50:06;100249.69;;;13.40;40.70
15817;BME280;8009;50.070;8.232;2023-04-27T08:52:38;100243.44;;;13.60;39.31
15817;BME280;8009;50.070;8.232;2023-04-27T08:55:07;100248.06;;;13.37;40.54
15817;BME280;8009;50.070;8.232;2023-04-27T08:57:36;100251.78;;;13.69;38.49
15817;BME280;8009;50.070;8.232;2023-04-27T09:00:05;100257.00;;;13.60;39.28
15817;BME280;8009;50.070;8.232;2023-04-27T09:02:43;100254.19;;;14.04;40.25
15817;BME280;8009;50.070;8.232;2023-04-27T09:05:15;100248.59;;;14.17;39.35
15817;BME280;8009;50.070;8.232;2023-04-27T09:07:57;100240.69;;;14.13;36.70
15817;BME280;8009;50.070;8.232;2023-04-27T09:10:27;100234.41;;;14.65;36.78
15817;BME280;8009;50.070;8.232;2023-04-27T09:12:57;100240.25;;;14.60;36.46
15817;BME280;8009;50.070;8.232;2023-04-27T09:15:25;100236.22;;;14.85;37.24
15817;BME280;8009;50.070;8.232;2023-04-27T09:17:54;100234.41;;;15.05;35.47
15817;BME280;8009;50.070;8.232;2023-04-27T09:20:23;100242.31;;;15.18;35.43
15817;BME280;8009;50.070;8.232;2023-04-27T09:22:53;100228.72;;;14.68;36.26
15817;BME280;8009;50.070;8.232;2023-04-27T09:25:26;100231.94;;;15.62;36.93
15817;BME280;8009;50.070;8.232;2023-04-27T09:27:56;100230.19;;;15.31;35.20
15817;BME280;8009;50.070;8.232;2023-04-27T09:30:26;100223.19;;;15.39;35.33
15817;BME280;8009;50.070;8.232;2023-04-27T09:32:56;100215.59;;;16.00;34.47
15817;BME280;8009;50.070;8.232;2023-04-27T09:35:27;100222.19;;;16.07;34.15
15817;BME280;8009;50.070;8.232;2023-04-27T09:37:55;100219.94;;;16.87;34.12
15817;BME280;8009;50.070;8.232;2023-04-27T09:40:27;100218.94;;;16.41;33.32
15817;BME280;8009;50.070;8.232;2023-04-27T09:42:58;100214.22;;;16.80;33.83
15817;BME280;8009;50.070;8.232;2023-04-27T09:45:26;100212.72;;;16.02;32.85
15817;BME280;8009;50.070;8.232;2023-04-27T09:47:55;100211.00;;;16.48;32.60
15817;BME280;8009;50.070;8.232;2023-04-27T09:50:23;100213.19;;;16.44;35.52
15817;BME280;8009;50.070;8.232;2023-04-27T09:52:51;100201.28;;;17.10;34.24
15817;BME280;8009;50.070;8.232;2023-04-27T09:55:31;100203.84;;;17.12;33.20
15817;BME280;8009;50.070;8.232;2023-04-27T09:58:13;100196.47;;;17.22;31.71
15817;BME280;8009;50.070;8.232;2023-04-27T10:00:55;100203.13;;;16.07;32.08
15817;BME280;8009;50.070;8.232;2023-04-27T10:08:34;100204.75;;;16.75;32.41
15817;BME280;8009;50.070;8.232;2023-04-27T10:11:15;100196.06;;;17.17;35.22
15817;BME280;8009;50.070;8.232;2023-04-27T10:13:50;100200.75;;;16.69;33.09
15817;BME280;8009;50.070;8.232;2023-04-27T10:16:20;100198.19;;;17.23;35.95
15817;BME280;8009;50.070;8.232;2023-04-27T10:18:53;100199.31;;;17.48;36.17
15817;BME280;8009;50.070;8.232;2023-04-27T10:21:22;100198.47;;;16.18;33.91
15817;BME280;8009;50.070;8.232;2023-04-27T10:23:51;100187.03;;;17.16;32.12
15817;BME280;8009;50.070;8.232;2023-04-27T10:26:24;100184.50;;;16.87;32.71
15817;BME280;8009;50.070;8.232;2023-04-27T10:28:56;100187.44;;;17.21;30.91
15817;BME280;8009;50.070;8.232;2023-04-27T10:31:28;100183.84;;;17.39;32.96
15817;BME280;8009;50.070;8.232;2023-04-27T10:34:07;100183.59;;;17.32;33.61
15817;BME280;8009;50.070;8.232;2023-04-27T10:36:37;100180.94;;;17.58;36.71
15817;BME280;8009;50.070;8.232;2023-04-27T10:39:13;100188.88;;;17.16;31.34
15817;BME280;8009;50.070;8.232;2023-04-27T10:41:52;100192.25;;;17.27;33.22
15817;BME280;8009;50.070;8.232;2023-04-27T10:44:24;100185.47;;;17.32;31.42
15817;BME280;8009;50.070;8.232;2023-04-27T10:47:11;100181.03;;;17.30;32.70
15817;BME280;8009;50.070;8.232;2023-04-27T10:49:40;100187.69;;;17.64;33.21
15817;BME280;8009;50.070;8.232;2023-04-27T10:52:10;100177.22;;;17.77;32.00
15817;BME280;8009;50.070;8.232;2023-04-27T10:54:44;100183.59;;;17.14;32.26
15817;BME280;8009;50.070;8.232;2023-04-27T10:57:15;100191.78;;;17.14;34.12
15817;BME280;8009;50.070;8.232;2023-04-27T10:59:47;100195.66;;;17.75;31.69
15817;BME280;8009;50.070;8.232;2023-04-27T11:02:17;100188.88;;;17.79;31.71
15817;BME280;8009;50.070;8.232;2023-04-27T11:04:52;100179.09;;;17.41;33.05
15817;BME280;8009;50.070;8.232;2023-04-27T11:07:24;100179.88;;;16.88;32.92
15817;BME280;8009;50.070;8.232;2023-04-27T11:09:53;100167.00;;;17.61;34.27
15817;BME280;8009;50.070;8.232;2023-04-27T11:12:24;100171.91;;;17.58;33.65
15817;BME280;8009;50.070;8.232;2023-04-27T11:14:56;100166.75;;;17.72;31.36
15817;BME280;8009;50.070;8.232;2023-04-27T11:17:28;100172.00;;;16.85;32.09
15817;BME280;8009;50.070;8.232;2023-04-27T11:20:03;100167.59;;;15.90;33.23
15817;BME280;8009;50.070;8.232;2023-04-27T11:22:33;100164.41;;;16.04;33.58
15817;BME280;8009;50.070;8.232;2023-04-27T11:25:02;100163.31;;;16.34;33.81
15817;BME280;8009;50.070;8.232;2023-04-27T11:27:44;100155.44;;;16.96;34.38
15817;BME280;8009;50.070;8.232;2023-04-27T11:30:18;100159.00;;;16.96;32.73
15817;BME280;8009;50.070;8.232;2023-04-27T11:32:48;100153.94;;;17.01;33.11
15817;BME280;8009;50.070;8.232;2023-04-27T11:35:18;100152.72;;;17.49;32.77
15817;BME280;8009;50.070;8.232;2023-04-27T11:37:57;100153.50;;;17.60;31.80
15817;BME280;8009;50.070;8.232;2023-04-27T11:40:28;100148.97;;;17.50;33.03
15817;BME280;8009;50.070;8.232;2023-04-27T11:45:35;100145.16;;;17.08;33.97
15817;BME280;8009;50.070;8.232;2023-04-27T11:53:09;100147.56;;;16.93;32.90
15817;BME280;8009;50.070;8.232;2023-04-27T11:58:13;100140.56;;;17.08;31.85
15817;BME280;8009;50.070;8.232;2023-04-27T12:05:53;100132.38;;;17.08;36.16
15817;BME280;8009;50.070;8.232;2023-04-27T12:08:30;100126.00;;;17.17;33.10
15817;BME280;8009;50.070;8.232;2023-04-27T12:46:01;100086.25;;;17.33;31.49
15817;BME280;8009;50.070;8.232;2023-04-27T12:48:35;100093.41;;;17.77;32.19
15817;BME280;8009;50.070;8.232;2023-04-27T13:19:34;100063.59;;;17.66;33.79
15817;BME280;8009;50.070;8.232;2023-04-27T13:22:07;100070.06;;;16.68;33.47
15817;BME280;8009;50.070;8.232;2023-04-27T13:27:07;100068.97;;;17.32;34.44
15817;BME280;8009;50.070;8.232;2023-04-27T13:29:36;100063.00;;;17.54;34.16
15817;BME280;8009;50.070;8.232;2023-04-27T13:32:04;100067.09;;;17.50;32.33
15817;BME280;8009;50.070;8.232;2023-04-27T13:34:35;100064.84;;;17.90;31.96
15817;BME280;8009;50.070;8.232;2023-04-27T13:37:04;100069.19;;;17.57;31.97
15817;BME280;8009;50.070;8.232;2023-04-27T13:41:59;100063.09;;;17.89;34.23
15817;BME280;8009;50.070;8.232;2023-04-27T13:47:12;100065.66;;;17.64;33.21
15817;BME280;8009;50.070;8.232;2023-04-27T13:49:43;100064.50;;;17.67;32.94
15817;BME280;8009;50.070;8.232;2023-04-27T13:57:20;100072.66;;;17.05;36.00
15817;BME280;8009;50.070;8.232;2023-04-27T14:02:23;100072.69;;;16.87;37.14
15817;BME280;8009;50.070;8.232;2023-04-27T14:04:54;100077.75;;;17.00;36.58
15817;BME280;8009;50.070;8.232;2023-04-27T14:07:22;100071.88;;;17.30;35.00
15817;BME280;8009;50.070;8.232;2023-04-27T14:09:51;100079.09;;;16.68;35.94
15817;BME280;8009;50.070;8.232;2023-04-27T14:15:05;100074.00;;;17.01;35.24
15817;BME280;8009;50.070;8.232;2023-04-27T14:17:33;100068.69;;;16.99;34.60
15817;BME280;8009;50.070;8.232;2023-04-27T14:20:05;100068.94;;;16.88;34.54
15817;BME280;8009;50.070;8.232;2023-04-27T14:25:16;100071.91;;;16.95;37.14
15817;BME280;8009;50.070;8.232;2023-04-27T14:38:07;100076.38;;;16.68;37.82
15817;BME280;8009;50.070;8.232;2023-04-27T14:40:36;100071.13;;;17.02;37.24
15817;BME280;8009;50.070;8.232;2023-04-27T15:13:44;100042.25;;;16.37;37.22
15817;BME280;8009;50.070;8.232;2023-04-27T15:16:12;100033.09;;;16.55;36.46
15817;BME280;8009;50.070;8.232;2023-04-27T15:18:45;100035.66;;;16.85;36.62
15817;BME280;8009;50.070;8.232;2023-04-27T15:21:14;100032.69;;;16.78;38.37
15817;BME280;8009;50.070;8.232;2023-04-27T15:23:43;100027.22;;;16.60;38.82
15817;BME280;8009;50.070;8.232;2023-04-27T15:26:11;100020.06;;;16.77;37.59
15817;BME280;8009;50.070;8.232;2023-04-27T15:28:41;100008.84;;;16.98;41.25
15817;BME280;8009;50.070;8.232;2023-04-27T15:31:11;100009.84;;;17.15;38.66
15817;BME280;8009;50.070;8.232;2023-04-27T15:33:40;99999.72;;;16.89;37.07
15817;BME280;8009;50.070;8.232;2023-04-27T15:41:19;99995.00;;;16.91;38.06
15817;BME280;8009;50.070;8.232;2023-04-27T15:49:15;99994.13;;;16.91;39.69
15817;BME280;8009;50.070;8.232;2023-04-27T15:51:43;99992.03;;;17.02;38.82
15817;BME280;8009;50.070;8.232;2023-04-27T15:59:22;99976.03;;;16.54;36.85
15817;BME280;8009;50.070;8.232;2023-04-27T16:04:28;99968.81;;;16.80;39.49
15817;BME280;8009;50.070;8.232;2023-04-27T16:06:57;99982.75;;;16.95;38.27
15817;BME280;8009;50.070;8.232;2023-04-27T17:50:19;99957.53;;;15.84;40.89
15817;BME280;8009;50.070;8.232;2023-04-27T17:52:48;99950.13;;;16.04;40.50
15817;BME280;8009;50.070;8.232;2023-04-27T17:55:17;99953.59;;;15.69;41.53
15817;BME280;8009;50.070;8.232;2023-04-27T18:00:21;99953.91;;;15.94;43.98
15817;BME280;8009;50.070;8.232;2023-04-27T18:02:50;99956.06;;;15.90;44.74
15817;BME280;8009;50.070;8.232;2023-04-27T18:05:21;99958.50;;;15.93;41.93
15817;BME280;8009;50.070;8.232;2023-04-27T18:07:49;99950.06;;;15.87;41.66
15817;BME280;8009;50.070;8.232;2023-04-27T18:10:18;99945.44;;;15.69;42.85
15817;BME280;8009;50.070;8.232;2023-04-27T18:12:46;99952.03;;;15.67;41.58
15817;BME280;8009;50.070;8.232;2023-04-27T18:15:15;99956.13;;;15.80;43.16
15817;BME280;8009;50.070;8.232;2023-04-27T18:17:44;99950.06;;;15.49;41.99
15817;BME280;8009;50.070;8.232;2023-04-27T18:20:13;99944.06;;;15.46;41.92
15817;BME280;8009;50.070;8.232;2023-04-27T18:22:47;99943.72;;;15.58;45.15
15817;BME280;8009;50.070;8.232;2023-04-27T18:25:22;99942.34;;;15.45;43.40
15817;BME280;8009;50.070;8.232;2023-04-27T18:28:00;99936.38;;;15.31;45.86
15817;BME280;8009;50.070;8.232;2023-04-27T18:30:29;99940.41;;;15.27;48.04
15817;BME280;8009;50.070;8.232;2023-04-27T18:33:04;99938.34;;;15.39;47.59
15817;BME280;8009;50.070;8.232;2023-04-27T18:35:36;99940.97;;;15.21;49.56
15817;BME280;8009;50.070;8.232;2023-04-27T18:38:14;99941.81;;;15.31;46.97
15817;BME280;8009;50.070;8.232;2023-04-27T18:41:04;99950.25;;;15.38;48.89
15817;BME280;8009;50.070;8.232;2023-04-27T18:43:33;99956.00;;;15.25;48.57
15817;BME280;8009;50.070;8.232;2023-04-27T18:46:02;99955.88;;;15.27;50.66
15817;BME280;8009;50.070;8.232;2023-04-27T18:58:55;99949.59;;;15.17;49.53
15817;BME280;8009;50.070;8.232;2023-04-27T19:01:26;99946.88;;;15.17;45.31
15817;BME280;8009;50.070;8.232;2023-04-27T19:03:54;99941.75;;;14.94;46.81
15817;BME280;8009;50.070;8.232;2023-04-27T19:16:42;99950.38;;;14.70;48.78
15817;BME280;8009;50.070;8.232;2023-04-27T19:19:11;99947.75;;;14.88;51.23
15817;BME280;8009;50.070;8.232;2023-04-27T19:21:39;99949.94;;;14.65;49.18
15817;BME280;8009;50.070;8.232;2023-04-27T19:24:08;99950.78;;;14.75;48.18
15817;BME280;8009;50.070;8.232;2023-04-27T19:26:37;99953.22;;;14.59;50.61
15817;BME280;8009;50.070;8.232;2023-04-27T19:29:06;99936.34;;;14.65;52.87
15817;BME280;8009;50.070;8.232;2023-04-27T19:31:34;99950.94;;;14.74;53.67
15817;BME280;8009;50.070;8.232;2023-04-27T19:34:05;99947.53;;;14.62;48.75
15817;BME280;8009;50.070;8.232;2023-04-27T19:36:33;99942.38;;;14.59;49.15
15817;BME280;8009;50.070;8.232;2023-04-27T19:41:37;99939.34;;;14.72;49.17
15817;BME280;8009;50.070;8.232;2023-04-27T21:57:37;99890.56;;;13.52;53.27
15817;BME280;8009;50.070;8.232;2023-04-27T22:09:10;99879.91;;;13.30;53.45
15817;BME280;8009;50.070;8.232;2023-04-27T22:12:09;99881.16;;;13.56;52.43
15817;BME280;8009;50.070;8.232;2023-04-27T22:18:00;99871.59;;;13.52;52.56
15817;BME280;8009;50.070;8.232;2023-04-27T22:23:37;99872.38;;;13.33;51.88
15817;BME280;8009;50.070;8.232;2023-04-27T22:26:05;99868.59;;;13.55;52.34
15817;BME280;8009;50.070;8.232;2023-04-27T22:28:38;99866.81;;;13.35;53.13
15817;BME280;8009;50.070;8.232;2023-04-27T22:31:06;99869.88;;;13.21;54.09
15817;BME280;8009;50.070;8.232;2023-04-27T22:33:35;99873.13;;;13.45;53.17
15817;BME280;8009;50.070;8.232;2023-04-27T22:36:04;99865.13;;;13.13;53.47